Time;durP1;ratioP1;P1;durP2;ratioP2;P2;SDS_P1;SDS_P2;PMS_P1;PMS_P2;Temp;Humidity;BMP_temperature;BMP_pressure;BME280_temperature;BME280_humidity;BME280_pressure;Samples;Min_cycle;Max_cycle;Signal;HPM_P1;HPM_P2
2023/07/17 00:01:05;;;;;;;3.10;1.80;;;;;;;15.60;69.29;99649.91;106614;1269;22572;-44
2023/07/17 00:03:45;;;;;;;2.20;1.60;;;;;;;15.67;69.46;99650.84;106670;1269;99068;-47
2023/07/17 00:06:15;;;;;;;4.70;2.00;;;;;;;15.72;69.34;99653.11;106680;1269;24231;-46
2023/07/17 00:08:44;;;;;;;4.80;2.00;;;;;;;15.74;69.45;99651.57;107014;1269;99144;-45
2023/07/17 00:11:12;;;;;;;3.80;2.10;;;;;;;15.75;69.49;99649.70;106897;1272;22526;-45
2023/07/17 00:13:41;;;;;;;2.40;1.70;;;;;;;15.76;69.71;99651.05;106798;1268;24264;-48
2023/07/17 00:16:10;;;;;;;3.00;1.80;;;;;;;15.78;69.85;99652.37;106650;1273;99816;-46
2023/07/17 00:18:42;;;;;;;3.40;2.00;;;;;;;15.79;69.88;99649.23;106739;1275;22535;-49
2023/07/17 00:21:11;;;;;;;3.70;1.80;;;;;;;15.81;70.13;99647.36;106667;1270;99130;-46
2023/07/17 00:23:40;;;;;;;4.90;2.10;;;;;;;15.85;70.26;99649.50;106691;1276;24013;-45
2023/07/17 00:26:09;;;;;;;2.00;1.40;;;;;;;15.90;70.30;99652.05;106537;1269;25334;-46
2023/07/17 00:28:38;;;;;;;3.00;1.80;;;;;;;15.93;70.36;99645.52;107001;1269;98889;-45
2023/07/17 00:31:07;;;;;;;3.40;1.60;;;;;;;15.92;70.43;99643.98;107072;1269;22485;-46
2023/07/17 00:33:36;;;;;;;2.40;1.70;;;;;;;15.92;70.47;99641.73;106836;1268;98943;-45
2023/07/17 00:36:05;;;;;;;2.50;1.50;;;;;;;15.88;70.29;99641.77;106707;1272;22508;-46
2023/07/17 00:38:34;;;;;;;1.90;1.50;;;;;;;15.85;70.58;99641.50;106991;1269;25306;-45
2023/07/17 00:41:03;;;;;;;3.00;1.60;;;;;;;15.83;70.77;99640.23;106647;1270;25300;-45
2023/07/17 00:43:32;;;;;;;3.40;1.90;;;;;;;15.80;71.03;99636.22;106725;1270;25440;-46
2023/07/17 00:46:01;;;;;;;4.00;2.10;;;;;;;15.75;70.94;99640.09;106841;1269;98956;-45
2023/07/17 00:48:30;;;;;;;2.60;1.60;;;;;;;15.71;71.08;99643.36;106792;1269;23105;-45
2023/07/17 00:50:59;;;;;;;6.30;2.40;;;;;;;15.71;71.28;99643.02;106751;1256;99173;-47
2023/07/17 00:53:27;;;;;;;3.40;2.00;;;;;;;15.70;71.40;99647.46;106874;1273;24942;-46
2023/07/17 00:55:57;;;;;;;2.90;2.00;;;;;;;15.67;71.20;99648.34;106884;1263;22541;-47
2023/07/17 00:58:25;;;;;;;3.20;1.80;;;;;;;15.63;71.42;99651.09;106756;1269;99492;-46
2023/07/17 01:00:54;;;;;;;2.50;1.70;;;;;;;15.59;71.58;99653.27;106929;1270;26535;-46
2023/07/17 01:03:23;;;;;;;4.60;2.20;;;;;;;15.58;71.95;99655.28;106859;1270;99144;-46
2023/07/17 01:05:52;;;;;;;3.10;1.70;;;;;;;15.55;71.80;99647.95;106946;1269;25386;-46
2023/07/17 01:08:21;;;;;;;2.40;1.50;;;;;;;15.47;71.87;99644.64;106565;1276;22524;-46
2023/07/17 01:10:50;;;;;;;4.80;1.90;;;;;;;15.42;71.96;99643.58;106786;1269;98967;-45
2023/07/17 01:13:19;;;;;;;2.60;1.70;;;;;;;15.37;72.00;99650.53;107053;1269;24210;-47
2023/07/17 01:15:48;;;;;;;2.40;1.70;;;;;;;15.37;72.32;99655.80;106691;1270;98998;-46
2023/07/17 01:18:17;;;;;;;2.20;1.80;;;;;;;15.38;72.53;99655.39;106796;1269;22910;-44
2023/07/17 01:20:48;;;;;;;3.20;1.50;;;;;;;15.37;72.69;99660.20;106864;1270;99134;-45
2023/07/17 01:23:17;;;;;;;6.60;1.80;;;;;;;15.34;72.86;99659.87;106745;1274;24320;-45
2023/07/17 01:25:48;;;;;;;4.50;2.10;;;;;;;15.34;72.92;99661.30;106724;1269;22463;-51
2023/07/17 01:28:17;;;;;;;3.10;1.90;;;;;;;15.34;72.94;99658.86;106803;1269;99392;-46
2023/07/17 01:30:46;;;;;;;3.00;2.20;;;;;;;15.30;73.00;99662.07;106995;1269;23411;-46
2023/07/17 01:33:16;;;;;;;3.90;2.50;;;;;;;15.26;73.09;99659.54;106750;1276;99439;-46
2023/07/17 01:35:45;;;;;;;3.70;2.40;;;;;;;15.23;73.33;99654.48;106769;1271;25552;-45
2023/07/17 01:38:14;;;;;;;4.20;2.50;;;;;;;15.25;73.73;99651.37;106763;1269;24269;-46
2023/07/17 01:40:43;;;;;;;5.30;2.60;;;;;;;15.26;73.79;99648.48;106776;1269;99496;-45
2023/07/17 01:43:13;;;;;;;4.80;2.60;;;;;;;15.26;73.84;99649.92;106897;1272;22997;-46
2023/07/17 01:45:44;;;;;;;3.60;2.20;;;;;;;15.25;74.09;99654.04;106884;1272;99073;-45
2023/07/17 01:48:17;;;;;;;3.10;2.00;;;;;;;15.23;74.50;99648.88;106958;1269;24054;-45
2023/07/17 01:50:47;;;;;;;4.40;2.40;;;;;;;15.20;74.22;99644.86;106993;1269;99185;-45
2023/07/17 01:53:21;;;;;;;4.20;2.20;;;;;;;15.11;74.06;99640.92;107052;1269;22636;-45
2023/07/17 01:55:50;;;;;;;7.70;2.10;;;;;;;15.06;74.24;99639.35;106725;1269;22518;-46
2023/07/17 01:58:18;;;;;;;4.60;2.20;;;;;;;15.01;74.31;99642.64;106707;1269;99048;-46
2023/07/17 02:00:55;;;;;;;3.10;1.90;;;;;;;14.92;74.35;99640.98;107176;1269;22700;-48
2023/07/17 02:03:36;;;;;;;3.90;1.90;;;;;;;14.85;74.63;99637.60;107356;1269;99077;-48
2023/07/17 02:06:06;;;;;;;5.20;1.90;;;;;;;14.84;74.88;99631.15;106948;1274;22621;-46
2023/07/17 02:08:34;;;;;;;3.50;2.20;;;;;;;14.83;74.80;99623.73;106962;1269;25455;-45
2023/07/17 02:11:04;;;;;;;4.40;2.50;;;;;;;14.82;74.99;99626.41;106911;1269;25316;-47
2023/07/17 02:13:33;;;;;;;4.10;2.50;;;;;;;14.82;75.28;99624.96;107066;1269;25506;-48
2023/07/17 02:16:02;;;;;;;5.40;2.20;;;;;;;14.85;75.70;99618.45;106974;1269;99083;-45
2023/07/17 02:18:31;;;;;;;3.70;2.50;;;;;;;14.88;75.97;99620.42;106731;1269;22569;-46
2023/07/17 02:21:00;;;;;;;3.30;2.40;;;;;;;14.93;76.36;99621.12;106659;1275;99120;-45
2023/07/17 02:23:29;;;;;;;3.50;2.20;;;;;;;14.97;76.30;99615.39;106794;1273;22614;-45
2023/07/17 02:25:58;;;;;;;3.90;2.10;;;;;;;15.01;76.45;99614.77;107087;1269;25338;-47
2023/07/17 02:28:27;;;;;;;3.10;2.30;;;;;;;15.05;76.53;99610.67;106704;1275;98974;-46
2023/07/17 02:30:56;;;;;;;3.70;2.10;;;;;;;15.08;76.76;99612.59;106852;1275;22555;-46
2023/07/17 02:33:25;;;;;;;3.00;2.40;;;;;;;15.10;76.88;99613.34;106784;1275;99006;-45
2023/07/17 02:35:54;;;;;;;3.50;2.10;;;;;;;15.08;76.76;99612.21;106819;1275;25287;-47
2023/07/17 02:38:23;;;;;;;5.50;2.10;;;;;;;15.04;76.91;99611.95;106783;1269;22640;-46
2023/07/17 02:40:51;;;;;;;3.10;2.40;;;;;;;15.03;76.99;99613.79;106823;1273;99148;-45
2023/07/17 02:43:20;;;;;;;2.80;1.90;;;;;;;15.03;77.07;99616.39;106753;1272;22653;-46
2023/07/17 02:45:49;;;;;;;2.60;2.10;;;;;;;15.04;77.22;99614.77;106587;1275;99041;-47
2023/07/17 02:48:18;;;;;;;4.70;2.40;;;;;;;15.09;77.56;99616.39;106991;1269;25294;-48
2023/07/17 02:50:51;;;;;;;2.80;2.00;;;;;;;15.18;77.73;99618.17;106844;1270;98167;-48
2023/07/17 02:53:20;;;;;;;3.50;2.20;;;;;;;15.26;77.73;99613.63;106806;1276;25329;-45
2023/07/17 02:55:49;;;;;;;4.30;2.20;;;;;;;15.31;77.53;99610.11;106826;1275;22637;-45
2023/07/17 02:58:21;;;;;;;4.20;2.40;;;;;;;15.32;77.49;99609.37;106844;1271;99052;-46
2023/07/17 03:00:49;;;;;;;3.90;2.30;;;;;;;15.33;77.60;99608.90;106795;1270;25642;-45
2023/07/17 03:03:18;;;;;;;3.80;2.10;;;;;;;15.37;77.68;99612.31;106792;1270;99654;-46
2023/07/17 03:05:47;;;;;;;4.70;2.20;;;;;;;15.45;78.00;99615.42;106902;1269;23870;-50
2023/07/17 03:08:16;;;;;;;2.80;2.20;;;;;;;15.56;78.14;99610.17;106698;1276;22547;-50
2023/07/17 03:10:45;;;;;;;3.00;2.10;;;;;;;15.69;78.37;99610.83;106661;1270;99252;-48
2023/07/17 03:13:14;;;;;;;2.70;2.20;;;;;;;15.83;78.57;99606.86;108357;1269;22637;-48
2023/07/17 03:15:43;;;;;;;3.80;2.50;;;;;;;16.00;78.62;99607.98;106782;1269;99866;-47
2023/07/17 03:18:12;;;;;;;3.50;2.10;;;;;;;16.14;78.42;99604.67;107057;1273;22572;-50
2023/07/17 03:20:44;;;;;;;2.30;1.90;;;;;;;16.18;78.23;99609.27;106637;1275;99075;-46
2023/07/17 03:23:12;;;;;;;2.60;2.00;;;;;;;16.21;78.43;99605.58;106689;1272;22762;-45
2023/07/17 03:25:42;;;;;;;3.30;2.10;;;;;;;16.28;78.70;99605.20;106675;1275;23334;-45
2023/07/17 03:28:11;;;;;;;2.80;2.20;;;;;;;16.38;78.89;99609.92;106747;1269;98972;-45
2023/07/17 03:30:40;;;;;;;3.40;1.80;;;;;;;16.54;78.99;99613.91;106730;1269;24245;-46
2023/07/17 03:33:10;;;;;;;3.10;2.20;;;;;;;16.69;79.07;99608.88;106816;1269;99619;-46
2023/07/17 03:35:39;;;;;;;3.80;1.70;;;;;;;16.85;79.13;99610.23;106858;1269;25732;-44
2023/07/17 03:38:08;;;;;;;3.00;2.10;;;;;;;17.00;79.28;99611.55;106848;1272;25334;-45
2023/07/17 03:40:37;;;;;;;3.60;2.20;;;;;;;17.14;79.28;99612.55;106866;1269;98994;-47
2023/07/17 03:43:06;;;;;;;2.90;1.80;;;;;;;17.27;79.26;99613.15;106866;1274;22634;-47
2023/07/17 03:45:34;;;;;;;2.40;2.10;;;;;;;17.42;79.45;99611.33;106848;1269;98960;-46
2023/07/17 03:48:04;;;;;;;3.40;2.50;;;;;;;17.54;79.39;99603.14;106928;1269;22573;-46
2023/07/17 03:50:33;;;;;;;4.20;2.00;;;;;;;17.63;79.54;99598.34;106894;1253;22664;-45
2023/07/17 03:53:05;;;;;;;3.80;2.30;;;;;;;17.77;79.56;99597.64;106898;1269;22531;-44
2023/07/17 03:55:35;;;;;;;5.40;2.30;;;;;;;17.87;79.51;99599.70;106923;1269;24250;-46
2023/07/17 03:58:07;;;;;;;5.50;2.00;;;;;;;17.94;79.45;99603.38;106731;1270;100539;-46
2023/07/17 04:00:36;;;;;;;2.70;2.10;;;;;;;18.00;79.50;99605.57;106928;1270;24292;-46
2023/07/17 04:03:06;;;;;;;4.30;2.30;;;;;;;18.06;79.41;99611.34;106818;1269;99689;-46
2023/07/17 04:05:35;;;;;;;5.30;2.30;;;;;;;18.16;79.51;99614.72;106736;1270;27282;-46
2023/07/17 04:08:05;;;;;;;5.10;2.40;;;;;;;18.27;79.69;99619.59;106913;1273;22635;-47
2023/07/17 04:10:33;;;;;;;3.30;1.80;;;;;;;18.40;79.75;99622.39;106926;1269;98946;-45
2023/07/17 04:13:03;;;;;;;6.90;2.60;;;;;;;18.57;79.75;99632.32;106706;1270;24209;-47
2023/07/17 04:15:35;;;;;;;14.10;2.60;;;;;;;18.75;79.83;99634.16;106579;1273;98999;-48
2023/07/17 04:18:04;;;;;;;4.40;2.10;;;;;;;18.93;79.68;99632.52;107062;1273;22550;-46
2023/07/17 04:20:36;;;;;;;4.10;1.80;;;;;;;19.10;79.49;99628.98;106826;1269;24342;-47
2023/07/17 04:23:05;;;;;;;13.20;2.50;;;;;;;19.27;79.40;99630.37;107234;1270;99184;-45
2023/07/17 04:25:39;;;;;;;9.20;1.80;;;;;;;19.41;79.30;99620.88;106856;1270;24191;-45
2023/07/17 04:28:08;;;;;;;3.40;2.00;;;;;;;19.51;78.82;99617.55;106541;1270;99507;-45
2023/07/17 04:30:37;;;;;;;3.40;1.80;;;;;;;19.57;78.69;99612.14;106899;1253;22550;-45
2023/07/17 04:33:07;;;;;;;6.90;2.40;;;;;;;19.57;78.34;99610.38;106874;1269;99088;-46
2023/07/17 04:35:37;;;;;;;5.30;2.40;;;;;;;19.57;78.46;99607.03;106924;1269;26592;-46
2023/07/17 04:38:05;;;;;;;5.80;2.00;;;;;;;19.54;78.29;99602.00;107010;1270;22532;-46
2023/07/17 04:40:35;;;;;;;4.70;2.30;;;;;;;19.49;78.23;99596.02;106771;1270;98917;-45
2023/07/17 04:43:03;;;;;;;4.20;2.40;;;;;;;19.45;78.14;99585.44;106748;1272;22934;-43
2023/07/17 04:45:32;;;;;;;5.20;2.00;;;;;;;19.40;77.93;99585.34;106747;1260;98954;-45
2023/07/17 04:48:03;;;;;;;3.30;1.70;;;;;;;19.39;78.11;99576.02;106813;1273;23750;-44
2023/07/17 04:50:32;;;;;;;5.60;2.30;;;;;;;19.44;78.06;99574.73;106894;1269;22563;-45
2023/07/17 04:53:01;;;;;;;5.00;2.10;;;;;;;19.51;78.17;99576.46;106788;1269;98883;-46
2023/07/17 04:55:30;;;;;;;3.70;2.20;;;;;;;19.57;78.04;99575.89;106772;1270;22659;-45
2023/07/17 04:57:59;;;;;;;3.00;2.20;;;;;;;19.64;77.96;99571.27;106697;1269;98999;-45
2023/07/17 05:00:27;;;;;;;4.40;2.20;;;;;;;19.70;77.97;99568.79;106980;1269;25762;-46
2023/07/17 05:02:56;;;;;;;3.20;2.10;;;;;;;19.81;77.97;99570.13;106760;1276;100667;-45
2023/07/17 05:05:26;;;;;;;10.20;2.40;;;;;;;19.93;77.88;99565.36;106651;1274;26603;-46
2023/07/17 05:07:55;;;;;;;5.20;2.30;;;;;;;20.06;77.99;99564.94;106845;1271;24363;-46
2023/07/17 05:10:24;;;;;;;7.00;2.10;;;;;;;20.21;78.32;99570.77;106804;1276;98960;-44
2023/07/17 05:12:53;;;;;;;4.50;1.80;;;;;;;20.39;78.14;99567.25;107116;1269;25297;-43
2023/07/17 05:15:50;;;;;;;5.80;2.30;;;;;;;20.56;77.83;99567.34;107512;1275;99244;-47
2023/07/17 05:18:22;;;;;;;3.90;2.10;;;;;;;20.73;77.92;99568.21;107236;1269;24264;-46
2023/07/17 05:20:52;;;;;;;6.70;2.10;;;;;;;20.91;77.65;99566.98;107562;1275;99650;-46
2023/07/17 05:23:20;;;;;;;6.30;2.30;;;;;;;21.05;77.53;99570.77;107914;1270;22640;-45
2023/07/17 05:25:56;;;;;;;4.30;1.80;;;;;;;21.21;77.42;99574.23;107072;1275;22567;-45
2023/07/17 05:28:27;;;;;;;6.10;1.90;;;;;;;21.40;77.67;99582.92;107014;1276;99721;-44
2023/07/17 05:31:21;;;;;;;2.90;2.10;;;;;;;21.55;77.33;99582.03;107310;1269;22584;-47
2023/07/17 05:34:10;;;;;;;3.50;2.10;;;;;;;21.69;77.28;99577.65;106801;1276;99845;-46
2023/07/17 05:36:50;;;;;;;6.70;2.40;;;;;;;21.81;77.10;99577.20;107445;1276;25362;-46
2023/07/17 05:39:19;;;;;;;2.20;2.00;;;;;;;21.92;76.82;99576.20;107201;1273;99648;-47
2023/07/17 05:41:49;;;;;;;4.90;1.80;;;;;;;22.02;77.11;99572.19;107430;1273;22610;-46
2023/07/17 05:44:18;;;;;;;4.10;2.20;;;;;;;22.15;76.89;99572.90;107260;1270;22527;-45
2023/07/17 05:46:48;;;;;;;6.00;2.50;;;;;;;22.26;76.73;99577.14;106673;1271;98997;-46
2023/07/17 05:49:21;;;;;;;3.30;2.30;;;;;;;22.35;76.29;99574.66;106919;1276;25268;-46
2023/07/17 05:51:51;;;;;;;4.40;2.30;;;;;;;22.37;76.18;99574.05;106765;1275;99098;-46
2023/07/17 05:54:21;;;;;;;4.70;2.10;;;;;;;22.46;76.11;99570.67;106892;1270;23886;-47
2023/07/17 05:56:50;;;;;;;4.20;1.80;;;;;;;22.55;75.64;99567.33;106767;1270;99185;-45
2023/07/17 05:59:19;;;;;;;3.80;2.10;;;;;;;22.61;75.57;99557.02;106876;1269;25573;-45
2023/07/17 06:01:47;;;;;;;6.50;1.90;;;;;;;22.72;75.66;99560.01;106847;1270;25240;-44
2023/07/17 06:04:16;;;;;;;2.50;1.90;;;;;;;22.85;75.73;99555.79;106717;1272;99386;-45
2023/07/17 06:06:45;;;;;;;4.10;1.80;;;;;;;23.01;75.63;99559.48;106622;1270;22511;-47
2023/07/17 06:09:16;;;;;;;3.30;2.10;;;;;;;23.17;75.18;99559.33;106595;1273;99139;-45
2023/07/17 06:11:45;;;;;;;3.50;2.50;;;;;;;23.30;75.18;99554.04;106785;1270;25630;-46
2023/07/17 06:14:14;;;;;;;3.60;2.10;;;;;;;23.46;74.55;99557.41;106862;1273;25502;-46
2023/07/17 06:16:43;;;;;;;5.60;2.00;;;;;;;23.55;74.23;99554.16;106775;1271;99005;-45
2023/07/17 06:19:12;;;;;;;3.20;2.10;;;;;;;23.65;74.24;99556.16;106853;1276;25446;-46
2023/07/17 06:21:42;;;;;;;4.90;2.40;;;;;;;23.74;73.72;99559.80;106757;1270;99155;-45
2023/07/17 06:24:14;;;;;;;3.10;1.80;;;;;;;23.82;73.36;99560.74;106870;1270;26467;-47
2023/07/17 06:26:44;;;;;;;4.90;2.60;;;;;;;23.82;72.96;99560.26;106837;1270;22610;-49
2023/07/17 06:29:13;;;;;;;2.90;2.10;;;;;;;23.90;73.11;99558.18;106580;1260;98654;-46
2023/07/17 06:31:43;;;;;;;3.10;1.80;;;;;;;24.02;72.76;99551.77;107125;1270;24241;-45
2023/07/17 06:34:13;;;;;;;5.30;2.30;;;;;;;24.14;72.74;99547.73;106605;1273;100037;-46
2023/07/17 06:36:43;;;;;;;3.90;2.50;;;;;;;24.26;72.47;99547.79;106992;1270;24289;-46
2023/07/17 06:39:13;;;;;;;4.50;2.40;;;;;;;24.34;72.14;99545.02;106805;1263;99659;-50
2023/07/17 06:41:42;;;;;;;2.20;1.80;;;;;;;24.46;71.95;99542.63;106500;1274;24303;-45
2023/07/17 06:44:16;;;;;;;3.00;2.10;;;;;;;24.62;71.61;99539.02;106874;1270;22533;-46
2023/07/17 06:46:48;;;;;;;3.90;2.50;;;;;;;24.79;71.42;99538.05;106581;1270;99055;-45
2023/07/17 06:49:22;;;;;;;6.40;2.30;;;;;;;25.04;71.55;99539.59;106878;1269;25435;-47
2023/07/17 06:51:54;;;;;;;5.00;2.30;;;;;;;25.38;71.15;99539.11;106567;1270;99069;-52
2023/07/17 06:54:41;;;;;;;5.00;2.30;;;;;;;25.77;71.35;99540.70;107770;1269;22562;-49
2023/07/17 06:57:30;;;;;;;7.60;2.40;;;;;;;26.44;71.29;99537.98;107779;1269;99108;-47
2023/07/17 07:00:17;;;;;;;4.30;2.30;;;;;;;27.06;70.20;99531.83;107810;1269;25307;-47
2023/07/17 07:02:46;;;;;;;5.60;2.40;;;;;;;27.63;69.57;99528.88;107661;1269;22535;-48
2023/07/17 07:05:16;;;;;;;4.50;2.10;;;;;;;28.16;69.13;99527.98;107444;1272;22557;-49
2023/07/17 07:07:46;;;;;;;4.10;2.30;;;;;;;28.62;68.17;99527.52;107911;1270;22705;-48
2023/07/17 07:10:16;;;;;;;6.70;2.70;;;;;;;29.13;67.76;99525.50;107390;1270;98972;-50
2023/07/17 07:12:47;;;;;;;3.10;2.00;;;;;;;29.82;66.56;99522.29;106816;1269;22538;-47
2023/07/17 07:15:37;;;;;;;6.80;2.50;;;;;;;30.52;67.13;99517.73;107011;1269;99134;-52
2023/07/17 07:18:05;;;;;;;4.60;1.80;;;;;;;31.43;63.80;99517.61;107549;1270;22543;-47
2023/07/17 07:20:38;;;;;;;4.00;2.20;;;;;;;32.05;63.52;99517.05;108028;1270;22542;-47
2023/07/17 07:23:16;;;;;;;6.10;1.80;;;;;;;32.69;62.32;99515.31;106914;1263;24305;-50
2023/07/17 07:26:11;;;;;;;7.60;2.20;;;;;;;33.23;61.65;99510.60;106982;1269;24324;-52
2023/07/17 07:28:49;;;;;;;4.40;1.80;;;;;;;34.02;60.38;99508.13;106525;1269;98999;-48
2023/07/17 07:31:17;;;;;;;4.00;2.30;;;;;;;34.74;59.35;99505.45;108062;1273;23276;-50
2023/07/17 07:33:46;;;;;;;3.70;2.10;;;;;;;35.34;57.02;99502.77;107873;1269;99625;-55
2023/07/17 07:36:15;;;;;;;8.20;2.70;;;;;;;35.63;56.43;99506.79;107246;1270;24242;-47
2023/07/17 07:38:44;;;;;;;3.00;1.90;;;;;;;36.34;54.96;99499.59;107647;1269;22638;-47
2023/07/17 07:41:13;;;;;;;6.30;2.30;;;;;;;36.47;51.60;99499.40;107168;1273;98817;-48
2023/07/17 07:43:42;;;;;;;3.80;1.50;;;;;;;36.58;52.10;99498.02;106887;1270;24238;-50
2023/07/17 07:46:11;;;;;;;5.20;2.10;;;;;;;37.37;51.55;99498.81;106633;1269;97992;-51
2023/07/17 07:48:40;;;;;;;3.10;1.90;;;;;;;38.18;51.19;99500.54;107030;1270;25502;-49
2023/07/17 07:51:09;;;;;;;9.50;1.70;;;;;;;38.84;49.94;99494.52;106933;1271;99061;-50
2023/07/17 07:53:39;;;;;;;4.60;2.00;;;;;;;39.27;47.91;99498.74;106881;1269;22805;-50
2023/07/17 07:56:10;;;;;;;4.00;1.90;;;;;;;39.86;47.94;99496.81;106805;1273;22768;-51
2023/07/17 07:58:39;;;;;;;6.60;2.00;;;;;;;40.82;45.15;99495.14;106801;1273;101320;-50
2023/07/17 08:01:08;;;;;;;3.60;1.60;;;;;;;41.11;43.39;99494.36;106635;1270;262340;-50
2023/07/17 08:03:39;;;;;;;3.20;1.60;;;;;;;41.00;42.05;99493.40;106721;1276;99521;-51
2023/07/17 08:06:08;;;;;;;10.90;2.00;;;;;;;41.02;41.45;99491.09;106732;1270;22531;-52
2023/07/17 08:08:39;;;;;;;3.60;1.80;;;;;;;41.57;41.02;99488.84;106875;1270;25240;-51
2023/07/17 08:11:08;;;;;;;7.50;1.70;;;;;;;42.31;40.03;99486.56;106951;1271;99054;-52
2023/07/17 08:13:37;;;;;;;5.40;2.00;;;;;;;42.60;37.62;99485.86;106810;1269;25580;-52
2023/07/17 08:16:05;;;;;;;3.40;1.60;;;;;;;42.58;36.64;99486.43;106639;1265;99042;-53
2023/07/17 08:18:34;;;;;;;3.80;1.60;;;;;;;42.62;36.42;99488.86;106886;1270;23902;-48
2023/07/17 08:21:03;;;;;;;3.80;1.40;;;;;;;43.21;35.59;99484.42;107068;1269;99506;-51
2023/07/17 08:23:33;;;;;;;3.40;1.70;;;;;;;43.82;34.59;99485.48;107144;1269;22670;-53
2023/07/17 08:26:02;;;;;;;5.30;1.70;;;;;;;44.46;33.21;99476.98;107181;1269;22546;-52
2023/07/17 08:28:32;;;;;;;7.90;1.60;;;;;;;44.58;31.71;99475.40;106811;1270;99222;-53
2023/07/17 08:31:00;;;;;;;3.30;1.40;;;;;;;44.50;31.40;99475.71;106942;1269;23882;-51
2023/07/17 08:33:29;;;;;;;3.10;1.80;;;;;;;44.50;29.99;99473.13;106852;1269;99822;-50
2023/07/17 08:35:58;;;;;;;3.00;1.60;;;;;;;44.31;29.52;99475.25;106942;1269;24224;-50
2023/07/17 08:38:30;;;;;;;3.70;1.60;;;;;;;44.24;27.97;99471.90;106845;1269;24316;-52
2023/07/17 08:41:00;;;;;;;2.40;1.70;;;;;;;43.63;26.71;99474.52;106678;1269;100141;-51
2023/07/17 08:43:29;;;;;;;4.00;1.70;;;;;;;41.90;26.95;99471.46;106814;1269;25284;-48
2023/07/17 08:45:58;;;;;;;3.20;1.50;;;;;;;40.12;26.80;99469.65;106838;1269;98971;-48
2023/07/17 08:48:29;;;;;;;3.40;1.60;;;;;;;38.29;26.48;99469.36;106953;1269;23817;-48
2023/07/17 08:51:04;;;;;;;3.20;1.70;;;;;;;36.67;26.73;99460.06;107044;1269;100848;-46
2023/07/17 08:53:36;;;;;;;3.20;1.70;;;;;;;35.39;26.69;99454.73;107663;1266;22619;-48
2023/07/17 08:56:07;;;;;;;2.90;1.50;;;;;;;34.93;27.53;99453.42;106791;1269;25294;-47
2023/07/17 08:58:40;;;;;;;3.70;1.90;;;;;;;36.44;27.64;99448.69;106777;1262;99062;-49
2023/07/17 09:01:09;;;;;;;3.40;1.80;;;;;;;38.49;27.58;99451.11;106933;1270;24259;-49
2023/07/17 09:03:39;;;;;;;4.00;1.90;;;;;;;39.40;26.32;99447.79;106780;1269;99028;-49
2023/07/17 09:06:13;;;;;;;3.10;1.60;;;;;;;38.94;26.06;99451.34;106880;1269;22792;-50
2023/07/17 09:08:42;;;;;;;3.00;1.60;;;;;;;38.25;26.55;99454.90;106857;1269;23264;-47
2023/07/17 09:11:11;;;;;;;4.40;1.60;;;;;;;38.78;27.28;99449.54;106725;1269;98859;-49
2023/07/17 09:13:42;;;;;;;3.60;1.70;;;;;;;40.44;27.07;99448.03;106842;1269;22524;-51
2023/07/17 09:16:12;;;;;;;3.30;1.90;;;;;;;42.08;26.48;99447.23;106703;1269;98944;-51
2023/07/17 09:18:42;;;;;;;6.20;1.60;;;;;;;42.98;25.48;99443.95;106793;1269;24272;-50
2023/07/17 09:21:12;;;;;;;3.80;1.60;;;;;;;41.84;23.28;99446.38;106710;1269;99210;-50
2023/07/17 09:23:49;;;;;;;2.60;1.60;;;;;;;40.40;24.23;99453.97;106720;1271;22575;-50
2023/07/17 09:26:19;;;;;;;3.30;2.20;;;;;;;40.16;24.04;99453.73;106867;1268;22729;-49
2023/07/17 09:28:50;;;;;;;2.90;1.80;;;;;;;39.14;23.33;99462.39;106778;1273;99972;-47
2023/07/17 09:31:32;;;;;;;4.00;2.00;;;;;;;38.04;23.47;99459.28;106901;1260;22522;-47
2023/07/17 09:34:12;;;;;;;3.30;1.90;;;;;;;37.11;23.69;99459.12;106668;1272;99145;-48
2023/07/17 09:36:41;;;;;;;3.00;1.90;;;;;;;36.49;23.61;99462.09;106845;1260;24312;-47
2023/07/17 09:39:12;;;;;;;2.60;1.70;;;;;;;36.34;23.85;99457.48;106991;1272;99223;-47
2023/07/17 09:41:41;;;;;;;4.40;1.70;;;;;;;36.42;23.94;99462.84;107162;1272;22583;-50
2023/07/17 09:44:20;;;;;;;3.70;2.10;;;;;;;36.41;23.80;99457.60;106833;1269;25304;-48
2023/07/17 09:46:49;;;;;;;4.50;2.00;;;;;;;37.11;24.70;99460.04;106639;1270;99014;-48
2023/07/17 09:49:19;;;;;;;4.90;1.70;;;;;;;38.60;24.73;99459.39;106910;1272;22527;-50
2023/07/17 09:51:50;;;;;;;2.60;1.50;;;;;;;40.23;24.32;99457.58;106726;1270;99057;-48
2023/07/17 09:54:20;;;;;;;3.60;1.70;;;;;;;40.53;23.69;99444.77;106756;1270;22595;-51
2023/07/17 09:56:53;;;;;;;4.50;1.70;;;;;;;40.24;23.94;99449.17;106717;1270;22545;-52
2023/07/17 09:59:26;;;;;;;2.50;1.40;;;;;;;41.59;24.40;99453.56;106737;1271;22714;-51
2023/07/17 10:01:59;;;;;;;3.50;1.70;;;;;;;43.07;23.26;99447.45;106677;1270;22756;-53
2023/07/17 10:04:34;;;;;;;5.10;1.80;;;;;;;44.19;22.93;99446.23;106623;1270;99309;-50
2023/07/17 10:07:08;;;;;;;13.10;2.40;;;;;;;45.54;22.56;99448.18;106766;1270;24222;-52
2023/07/17 10:09:41;;;;;;;3.70;1.70;;;;;;;46.61;21.43;99452.80;106855;1267;99331;-53
2023/07/17 10:12:10;;;;;;;3.70;1.90;;;;;;;47.18;20.57;99456.42;106630;1275;24270;-51
2023/07/17 10:14:41;;;;;;;3.70;1.90;;;;;;;47.38;19.86;99454.33;106970;1270;22540;-53
2023/07/17 10:17:30;;;;;;;4.70;2.00;;;;;;;45.47;19.51;99454.63;106696;1264;98787;-53
2023/07/17 10:20:02;;;;;;;3.70;1.60;;;;;;;43.06;19.63;99454.87;106825;1270;25466;-52
2023/07/17 10:22:38;;;;;;;3.70;1.60;;;;;;;41.82;19.54;99453.71;106733;1269;99048;-48
2023/07/17 10:25:17;;;;;;;3.70;1.50;;;;;;;40.40;19.93;99453.46;106703;1275;22750;-53
2023/07/17 10:27:58;;;;;;;4.20;1.50;;;;;;;39.59;20.07;99462.15;106543;1272;98913;-47
2023/07/17 10:30:29;;;;;;;11.00;2.60;;;;;;;38.31;20.57;99463.86;106409;1270;22550;-48
2023/07/17 10:33:05;;;;;;;4.30;1.90;;;;;;;36.46;21.25;99469.41;106500;1270;99754;-47
2023/07/17 10:35:51;;;;;;;4.60;1.80;;;;;;;35.03;22.03;99469.70;106697;1271;25361;-45
2023/07/17 10:38:24;;;;;;;;;;;;;;;33.75;23.15;99477.88;106855;1270;22509;-47
2023/07/17 10:41:06;;;;;;;5.90;2.00;;;;;;;32.87;23.57;99484.70;106505;1269;84169;-46
2023/07/17 10:43:36;;;;;;;3.60;2.00;;;;;;;31.79;24.61;99482.91;106631;1275;24244;-46
2023/07/17 10:46:10;;;;;;;14.60;2.30;;;;;;;30.90;25.10;99482.88;106692;1270;99222;-45
2023/07/17 10:48:40;;;;;;;9.40;2.00;;;;;;;30.18;25.94;99490.61;106880;1269;22634;-46
2023/07/17 10:51:15;;;;;;;5.30;2.00;;;;;;;29.39;26.45;99488.06;106827;1272;99118;-47
2023/07/17 10:53:46;;;;;;;4.60;2.20;;;;;;;28.85;27.39;99492.77;106770;1270;24280;-47
2023/07/17 10:56:15;;;;;;;8.40;2.20;;;;;;;28.53;28.02;99494.55;106868;1270;22551;-49
2023/07/17 10:58:48;;;;;;;3.60;1.80;;;;;;;28.38;28.47;99490.19;106704;1272;99313;-48
2023/07/17 11:01:18;;;;;;;5.40;2.00;;;;;;;28.68;29.25;99488.27;106849;1255;22623;-46
2023/07/17 11:03:48;;;;;;;4.70;2.50;;;;;;;28.46;29.13;99489.08;106713;1269;100777;-47
2023/07/17 11:06:18;;;;;;;7.10;1.90;;;;;;;27.96;29.70;99487.94;106798;1270;25385;-49
2023/07/17 11:08:49;;;;;;;3.60;2.20;;;;;;;27.58;30.63;99486.89;106832;1272;22525;-46
2023/07/17 11:11:19;;;;;;;3.00;2.10;;;;;;;27.28;31.09;99489.29;106784;1269;98728;-46
2023/07/17 11:13:49;;;;;;;6.70;2.00;;;;;;;27.66;32.02;99486.12;106925;1269;22591;-46
2023/07/17 11:16:23;;;;;;;3.80;1.70;;;;;;;28.67;32.34;99485.30;106805;1275;99239;-46
2023/07/17 11:18:55;;;;;;;5.20;2.10;;;;;;;30.16;32.88;99473.77;106826;1258;23221;-48
2023/07/17 11:21:27;;;;;;;5.00;2.00;;;;;;;31.99;32.89;99463.05;106812;1268;99056;-47
2023/07/17 11:23:57;;;;;;;4.00;2.20;;;;;;;33.36;32.53;99459.13;106829;1271;23914;-46
2023/07/17 11:26:28;;;;;;;5.40;2.50;;;;;;;33.19;32.02;99453.95;106864;1269;22530;-46
2023/07/17 11:29:00;;;;;;;3.20;1.80;;;;;;;32.53;32.81;99456.41;106803;1269;99375;-47
2023/07/17 11:31:32;;;;;;;3.70;1.90;;;;;;;32.78;33.02;99456.18;106931;1271;25298;-46
2023/07/17 11:34:11;;;;;;;8.60;2.50;;;;;;;32.48;32.81;99462.04;106798;1272;99171;-48
2023/07/17 11:36:45;;;;;;;6.40;2.10;;;;;;;31.58;32.59;99463.46;106825;1269;25338;-48
2023/07/17 11:39:19;;;;;;;5.10;2.20;;;;;;;30.27;32.86;99472.35;106745;1269;99975;-45
2023/07/17 11:41:55;;;;;;;8.20;2.10;;;;;;;29.23;33.49;99479.89;106709;1272;24305;-46